الصفحة الرئيسية
METAR-TAF:

METAR-TAF

مطار :

جدة, السعودية

مطار الملك عبد العزيز الدولي

دائرة عرض: 21-42N, خط طول: 039-11E, ارتفاع: 15 متر

مراقبة الطقس الحالي

تاريخ ووقت الإصدار 21 دقيقة قبل الساعة 18:00UTC
ريح 10 عقدة من الشمال/الشمال الغربي
درجة الحرارة 22°درجة مئوية
الرطوبة 46%
ضغط 1013 hPa
الرؤية 10 كم أو أكثر
الغيوم لا تقل 1500 م ولا وجود لمزنة ركامية السحاب الأسود

METAR: OEJN 181800Z 33010KT CAVOK 22/10 Q1013 NOSIG

زمن: 21:21 (18:21 UTC)

توقعات

تاريخ ووقت الإصدار 1ساعة و 21 دقيقة قبل الساعة 17:00UTC
التوقعات صالحة من18 الساعة 18 UTC إلى 19 الساعة 24 UTC
ريح 10 عقدة من الشمال الشرقي
الرؤية 10 كم أو أكثر
غيوم قليلة على ارتفاع 4000 قدم
أصبح
من 19 الساعة 06 UTC إلى 19 الساعة 08 UTC
ريح 14 عقدة من الشمال/الشمال الغربي

TAF: OEJN 181700Z 1818/1924 04010KT 9999 FEW040 BECMG 1906/1908 33014KT

أرصاد الطقس والتوقعات من أكثر من 4000 مطار (تقارير الطقس للمطار METAR والتنبؤ بالطقس بالمطارTAF).

المحطات المتاحة هي النقط الصفراء والحمراء على الخريطة.

حرك المؤشر فوق النقطة لمعرفة اسم المحطة.

ثم انقر لمعرفة أرصاد وتوقعات الطقس.

لتغيير الخارطة: اضغط على الأزرار الخضراء مع رمز الصليب الأسود للتكبير. على الزر الأخضر مع شرطة للتصغير، أو على الأسهم الخضراء للخرائط المجاورة.


METAR-TAF: